createdAt,value
2023-02-24T00:02:05.194Z,11.00
2023-02-24T00:04:35.445Z,11.00
2023-02-24T00:07:02.790Z,11.00
2023-02-24T00:09:30.814Z,11.00
2023-02-24T00:11:59.730Z,11.00
2023-02-24T00:14:28.667Z,11.00
2023-02-24T00:16:58.212Z,11.00
2023-02-24T00:19:27.737Z,11.00
2023-02-24T00:21:55.889Z,11.00
2023-02-24T00:24:22.872Z,11.00
2023-02-24T00:26:54.308Z,11.00
2023-02-24T00:29:21.635Z,11.00
2023-02-24T00:31:50.703Z,11.00
2023-02-24T00:34:18.122Z,11.00
2023-02-24T00:36:44.915Z,11.00
2023-02-24T00:39:13.677Z,11.00
2023-02-24T00:41:42.270Z,11.00
2023-02-24T00:44:12.597Z,11.00
2023-02-24T00:46:41.424Z,11.00
2023-02-24T00:49:12.687Z,11.00
2023-02-24T00:51:41.302Z,10.90
2023-02-24T00:54:08.943Z,10.90
2023-02-24T00:56:37.272Z,10.90
2023-02-24T00:59:04.091Z,10.90
2023-02-24T01:01:32.845Z,10.90
2023-02-24T01:04:01.660Z,10.90
2023-02-24T01:06:29.458Z,10.90
2023-02-24T01:08:57.710Z,11.00
2023-02-24T01:11:47.118Z,10.90
2023-02-24T01:14:18.924Z,10.90
2023-02-24T01:16:50.222Z,10.90
2023-02-24T01:19:17.172Z,10.90
2023-02-24T01:21:44.213Z,10.80
2023-02-24T01:24:11.119Z,10.80
2023-02-24T01:26:37.984Z,10.70
2023-02-24T01:29:05.526Z,10.70
2023-02-24T01:31:33.820Z,10.70
2023-02-24T01:34:05.829Z,10.70
2023-02-24T01:36:33.748Z,10.70
2023-02-24T01:39:01.691Z,10.70
2023-02-24T01:41:28.618Z,10.70
2023-02-24T01:43:58.917Z,10.70
2023-02-24T01:46:26.808Z,10.70
2023-02-24T01:48:59.136Z,10.70
2023-02-24T01:51:29.243Z,10.60
2023-02-24T01:53:56.230Z,10.60
2023-02-24T01:56:23.282Z,10.60
2023-02-24T01:58:50.238Z,10.50
2023-02-24T02:01:21.066Z,10.50
2023-02-24T02:03:49.090Z,10.50
2023-02-24T02:06:17.822Z,10.50
2023-02-24T02:08:44.915Z,10.50
2023-02-24T02:11:14.542Z,10.50
2023-02-24T02:13:44.893Z,10.40
2023-02-24T02:16:42.048Z,10.30
2023-02-24T02:19:44.559Z,10.30
2023-02-24T02:22:43.329Z,10.30
2023-02-24T02:25:17.802Z,10.30
2023-02-24T02:28:11.980Z,10.20
2023-02-24T02:31:19.416Z,10.10
2023-02-24T02:34:08.032Z,10.10
2023-02-24T02:36:44.437Z,10.00
2023-02-24T02:39:16.394Z,10.00
2023-02-24T02:41:53.144Z,10.00
2023-02-24T02:44:24.049Z,10.00
2023-02-24T02:46:58.210Z,10.00
2023-02-24T02:49:32.317Z,10.00
2023-02-24T02:52:05.767Z,10.00
2023-02-24T02:54:38.947Z,10.00
2023-02-24T03:00:12.321Z,10.00
2023-02-24T03:02:42.750Z,9.90
2023-02-24T03:05:17.412Z,10.00
2023-02-24T03:07:48.856Z,10.00
2023-02-24T03:10:22.266Z,10.00
2023-02-24T03:12:55.342Z,10.10
2023-02-24T03:15:25.976Z,10.10
2023-02-24T03:17:56.139Z,10.10
2023-02-24T03:20:29.398Z,10.10
2023-02-24T03:23:04.684Z,10.20
2023-02-24T03:25:38.398Z,10.20
2023-02-24T03:28:11.297Z,10.20
2023-02-24T03:30:43.082Z,10.20
2023-02-24T03:33:18.379Z,10.30
2023-02-24T03:35:51.159Z,10.30
2023-02-24T03:38:18.901Z,10.30
2023-02-24T03:40:46.117Z,10.30
2023-02-24T03:43:18.016Z,10.30
2023-02-24T03:45:46.641Z,10.30
2023-02-24T03:48:14.429Z,10.30
2023-02-24T03:50:42.718Z,10.30
2023-02-24T03:53:30.947Z,10.30
2023-02-24T03:56:05.621Z,10.40
2023-02-24T03:58:47.117Z,10.40
2023-02-24T04:01:18.997Z,10.30
2023-02-24T04:03:57.649Z,10.20
2023-02-24T04:06:34.219Z,10.20
2023-02-24T04:09:08.860Z,10.10
2023-02-24T04:11:42.975Z,10.10
2023-02-24T04:14:18.548Z,10.10
2023-02-24T04:16:54.169Z,10.10
2023-02-24T04:19:24.131Z,10.10
2023-02-24T04:21:51.437Z,10.10
2023-02-24T04:24:23.817Z,10.10
2023-02-24T04:26:51.941Z,10.10
2023-02-24T04:29:23.394Z,10.10
2023-02-24T04:31:53.375Z,10.10
2023-02-24T04:34:20.638Z,10.10
2023-02-24T04:36:50.410Z,10.10
2023-02-24T04:39:19.604Z,10.10
2023-02-24T04:41:49.320Z,10.10
2023-02-24T04:44:17.585Z,10.00
2023-02-24T04:46:44.884Z,10.00
2023-02-24T04:49:12.077Z,10.00
2023-02-24T04:51:42.359Z,10.00
2023-02-24T04:54:09.461Z,10.00
2023-02-24T04:56:40.723Z,10.00
2023-02-24T04:59:10.325Z,10.00
2023-02-24T05:01:39.709Z,10.00
2023-02-24T05:04:06.926Z,10.00
2023-02-24T05:06:34.284Z,10.00
2023-02-24T05:09:14.351Z,10.00
2023-02-24T05:11:44.542Z,10.00
2023-02-24T05:14:15.088Z,10.00
2023-02-24T05:16:44.124Z,9.90
2023-02-24T05:19:29.536Z,9.80
2023-02-24T05:21:59.015Z,9.90
2023-02-24T05:24:27.231Z,9.90
2023-02-24T05:27:03.755Z,9.90
2023-02-24T05:29:35.228Z,9.90
2023-02-24T05:32:04.270Z,9.90
2023-02-24T05:34:32.647Z,9.90
2023-02-24T05:37:01.687Z,9.90
2023-02-24T05:39:28.681Z,9.90
2023-02-24T05:41:57.190Z,9.90
2023-02-24T05:44:25.976Z,9.80
2023-02-24T05:47:00.800Z,9.90
2023-02-24T05:49:32.872Z,9.90
2023-02-24T05:52:02.468Z,9.90
2023-02-24T05:54:32.317Z,9.80
2023-02-24T05:57:01.770Z,9.80
2023-02-24T05:59:32.895Z,9.70
2023-02-24T06:02:02.122Z,9.70
2023-02-24T06:04:41.098Z,9.70
2023-02-24T06:07:19.114Z,9.70
2023-02-24T06:09:49.831Z,9.80
2023-02-24T06:12:20.215Z,9.70
2023-02-24T06:14:47.475Z,9.70
2023-02-24T06:17:16.960Z,9.80
2023-02-24T06:19:44.072Z,9.80
2023-02-24T06:22:13.827Z,9.80
2023-02-24T06:24:44.435Z,9.80
2023-02-24T06:27:17.567Z,9.80
2023-02-24T06:29:49.759Z,9.80
2023-02-24T06:32:17.219Z,9.80
2023-02-24T06:34:44.180Z,9.80
2023-02-24T06:37:13.349Z,9.90
2023-02-24T06:39:40.339Z,9.90
2023-02-24T06:42:08.684Z,9.90
2023-02-24T06:44:38.412Z,9.90
2023-02-24T06:47:08.762Z,9.90
2023-02-24T06:49:35.577Z,9.90
2023-02-24T06:52:03.230Z,9.90
2023-02-24T06:54:30.617Z,9.90
2023-02-24T06:56:59.256Z,9.90
2023-02-24T06:59:28.672Z,9.90
2023-02-24T07:01:56.701Z,9.90
2023-02-24T07:04:28.264Z,9.80
2023-02-24T07:06:57.356Z,9.80
2023-02-24T07:09:25.922Z,9.90
2023-02-24T07:11:55.895Z,9.90
2023-02-24T07:14:24.734Z,9.90
2023-02-24T07:16:55.305Z,9.90
2023-02-24T07:19:25.650Z,9.90
2023-02-24T07:21:59.967Z,10.00
2023-02-24T07:24:41.946Z,10.00
2023-02-24T07:27:12.859Z,9.90
2023-02-24T07:29:39.777Z,10.00
2023-02-24T07:32:08.751Z,10.00
2023-02-24T07:34:40.413Z,10.00
2023-02-24T07:37:08.683Z,10.10
2023-02-24T07:39:39.646Z,10.10
2023-02-24T07:42:08.661Z,10.10
2023-02-24T07:44:35.592Z,10.10
2023-02-24T07:47:07.657Z,10.20
2023-02-24T07:49:35.365Z,10.20
2023-02-24T07:52:03.963Z,10.20
2023-02-24T07:54:30.836Z,10.30
2023-02-24T07:56:59.506Z,10.30
2023-02-24T07:59:28.456Z,10.30
2023-02-24T08:01:56.336Z,10.30
2023-02-24T08:04:25.427Z,10.50
2023-02-24T08:06:56.352Z,10.50
2023-02-24T08:09:46.797Z,10.60
2023-02-24T08:12:17.820Z,10.60
2023-02-24T08:14:50.476Z,10.60
2023-02-24T08:17:19.913Z,10.60
2023-02-24T08:19:48.540Z,10.60
2023-02-24T08:22:25.463Z,10.60
2023-02-24T08:24:55.401Z,10.60
2023-02-24T08:27:24.564Z,10.60
2023-02-24T08:29:59.793Z,10.50
2023-02-24T08:32:33.749Z,10.50
2023-02-24T08:35:03.605Z,10.50
2023-02-24T08:37:39.526Z,10.60
2023-02-24T08:40:34.080Z,10.60
2023-02-24T08:43:16.002Z,10.60
2023-02-24T08:45:47.024Z,10.60
2023-02-24T08:48:32.363Z,10.70
2023-02-24T08:51:04.526Z,10.70
2023-02-24T08:53:32.106Z,10.70
2023-02-24T08:56:09.416Z,10.70
2023-02-24T08:58:40.936Z,10.70
2023-02-24T09:01:19.447Z,10.80
2023-02-24T09:03:48.292Z,10.80
2023-02-24T09:06:18.273Z,10.80
2023-02-24T09:08:46.220Z,10.80
2023-02-24T09:11:15.585Z,10.90
2023-02-24T09:13:58.062Z,10.90
2023-02-24T09:16:25.486Z,10.90
2023-02-24T09:19:11.353Z,10.90
2023-02-24T09:21:47.757Z,10.90
2023-02-24T09:24:16.858Z,11.00
2023-02-24T09:26:45.179Z,11.00
2023-02-24T09:29:31.453Z,11.00
2023-02-24T09:32:04.699Z,11.10
2023-02-24T09:34:33.296Z,11.20
2023-02-24T09:37:03.604Z,11.20
2023-02-24T09:39:52.389Z,11.30
2023-02-24T09:42:22.492Z,11.40
2023-02-24T09:44:52.820Z,11.50
2023-02-24T09:47:39.723Z,11.50
2023-02-24T09:50:46.920Z,11.60
2023-02-24T09:53:14.023Z,11.70
2023-02-24T09:56:03.754Z,11.80
2023-02-24T09:58:47.847Z,11.80
2023-02-24T10:01:31.030Z,11.70
2023-02-24T10:04:18.567Z,11.70
2023-02-24T10:06:49.336Z,11.70
2023-02-24T10:09:27.576Z,11.60
2023-02-24T10:12:04.062Z,11.60
2023-02-24T10:14:43.826Z,11.80
2023-02-24T10:17:23.519Z,12.20
2023-02-24T10:19:59.841Z,12.70
2023-02-24T10:22:40.362Z,13.10
2023-02-24T10:25:23.351Z,13.50
2023-02-24T10:28:00.620Z,13.90
2023-02-24T10:30:43.641Z,14.50
2023-02-24T10:33:25.487Z,15.10
2023-02-24T10:36:09.176Z,15.40
2023-02-24T10:38:37.259Z,15.40
2023-02-24T10:41:06.248Z,15.30
2023-02-24T10:43:45.197Z,15.00
2023-02-24T10:46:41.032Z,14.70
2023-02-24T10:49:16.392Z,14.50
2023-02-24T10:51:50.615Z,14.30
2023-02-24T10:54:44.952Z,14.20
2023-02-24T10:57:36.320Z,14.10
2023-02-24T11:00:31.016Z,14.00
2023-02-24T11:03:09.291Z,13.60
2023-02-24T11:05:44.032Z,13.40
2023-02-24T11:08:26.201Z,13.30
2023-02-24T11:10:58.591Z,13.30
2023-02-24T11:13:45.810Z,13.40
2023-02-24T11:16:31.192Z,13.30
2023-02-24T11:18:59.453Z,13.00
2023-02-24T11:21:27.503Z,13.00
2023-02-24T11:23:59.589Z,12.90
2023-02-24T11:26:32.068Z,12.80
2023-02-24T11:29:17.516Z,12.70
2023-02-24T11:31:57.752Z,12.70
2023-02-24T11:34:33.205Z,12.70
2023-02-24T11:37:14.637Z,12.70
2023-02-24T11:39:53.696Z,12.70
2023-02-24T11:42:25.677Z,12.80
2023-02-24T11:44:58.536Z,12.80
2023-02-24T11:47:31.949Z,12.80
2023-02-24T11:50:15.349Z,12.90
2023-02-24T11:52:46.767Z,13.00
2023-02-24T11:55:23.403Z,13.00
2023-02-24T11:57:54.518Z,12.90
2023-02-24T12:00:27.932Z,12.90
2023-02-24T12:03:03.614Z,12.80
2023-02-24T12:05:36.699Z,12.70
2023-02-24T12:08:11.428Z,12.70
2023-02-24T12:10:47.434Z,12.70
2023-02-24T12:13:21.201Z,12.60
2023-02-24T12:15:55.242Z,12.60
2023-02-24T12:18:27.550Z,12.50
2023-02-24T12:21:00.457Z,12.50
2023-02-24T12:23:32.967Z,12.50
2023-02-24T12:26:13.325Z,12.40
2023-02-24T12:28:58.912Z,12.40
2023-02-24T12:31:34.994Z,12.30
2023-02-24T12:34:10.238Z,12.30
2023-02-24T12:36:58.819Z,12.20
2023-02-24T12:39:31.637Z,12.20
2023-02-24T12:42:07.531Z,12.10
2023-02-24T12:44:46.668Z,12.10
2023-02-24T12:47:16.476Z,12.00
2023-02-24T12:50:09.721Z,12.00
2023-02-24T12:52:51.318Z,12.00
2023-02-24T12:55:23.299Z,11.90
2023-02-24T12:57:59.770Z,11.90
2023-02-24T13:00:36.852Z,11.80
2023-02-24T13:03:19.457Z,11.70
2023-02-24T13:05:52.197Z,11.50
2023-02-24T13:08:35.474Z,11.40
2023-02-24T13:11:13.194Z,11.30
2023-02-24T13:13:46.436Z,11.20
2023-02-24T13:16:13.498Z,11.20
2023-02-24T13:18:40.773Z,11.20
2023-02-24T13:21:18.527Z,11.20
2023-02-24T13:23:57.822Z,11.20
2023-02-24T13:26:27.079Z,11.20
2023-02-24T13:29:00.852Z,11.20
2023-02-24T13:31:28.031Z,11.20
2023-02-24T13:33:55.412Z,11.20
2023-02-24T13:36:23.814Z,11.30
2023-02-24T13:39:04.334Z,11.30
2023-02-24T13:41:38.514Z,11.30
2023-02-24T13:44:23.426Z,11.20
2023-02-24T13:47:13.223Z,11.20
2023-02-24T13:49:48.397Z,11.20
2023-02-24T13:52:24.889Z,11.20
2023-02-24T13:55:11.066Z,11.20
2023-02-24T13:58:17.133Z,11.20
2023-02-24T14:00:57.512Z,11.10
2023-02-24T14:03:27.657Z,11.10
2023-02-24T14:05:55.355Z,11.10
2023-02-24T14:08:27.523Z,11.00
2023-02-24T14:10:57.532Z,11.00
2023-02-24T14:13:28.009Z,11.00
2023-02-24T14:15:55.879Z,11.00
2023-02-24T14:18:25.464Z,10.90
2023-02-24T14:20:53.956Z,10.90
2023-02-24T14:23:23.357Z,10.80
2023-02-24T14:25:58.583Z,10.80
2023-02-24T14:28:28.998Z,10.80
2023-02-24T14:30:58.527Z,10.90
2023-02-24T14:33:30.363Z,10.90
2023-02-24T14:35:57.806Z,10.80
2023-02-24T14:38:33.622Z,10.90
2023-02-24T14:41:02.639Z,10.90
2023-02-24T14:43:29.678Z,10.80
2023-02-24T14:45:59.612Z,10.80
2023-02-24T14:48:28.956Z,10.70
2023-02-24T14:51:01.320Z,10.70
2023-02-24T14:53:30.459Z,10.70
2023-02-24T14:56:04.463Z,10.70
2023-02-24T14:58:37.148Z,10.60
2023-02-24T15:01:06.791Z,10.60
2023-02-24T15:03:45.460Z,10.60
2023-02-24T15:06:21.327Z,10.60
2023-02-24T15:08:50.447Z,10.50
2023-02-24T15:11:23.050Z,10.50
2023-02-24T15:13:52.588Z,10.60
2023-02-24T15:16:23.632Z,10.60
2023-02-24T15:18:52.745Z,10.60
2023-02-24T15:21:23.838Z,10.60
2023-02-24T15:23:58.867Z,10.50
2023-02-24T15:26:30.696Z,10.50
2023-02-24T15:28:59.886Z,10.50
2023-02-24T15:31:28.354Z,10.50
2023-02-24T15:33:58.029Z,10.50
2023-02-24T15:36:26.779Z,10.50
2023-02-24T15:38:57.691Z,10.50
2023-02-24T15:41:24.730Z,10.50
2023-02-24T15:43:56.234Z,10.50
2023-02-24T15:46:28.059Z,10.50
2023-02-24T15:48:56.500Z,10.40
2023-02-24T15:51:35.040Z,10.40
2023-02-24T15:54:04.466Z,10.40
2023-02-24T15:56:33.193Z,10.40
2023-02-24T15:59:02.681Z,10.40
2023-02-24T16:01:30.562Z,10.30
2023-02-24T16:03:57.631Z,10.30
2023-02-24T16:06:25.743Z,10.20
2023-02-24T16:08:54.448Z,10.20
2023-02-24T16:11:24.207Z,10.20
2023-02-24T16:13:53.928Z,10.20
2023-02-24T16:16:23.295Z,10.10
2023-02-24T16:18:50.503Z,10.00
2023-02-24T16:21:17.936Z,9.90
2023-02-24T16:23:45.075Z,9.90
2023-02-24T16:26:16.451Z,9.80
2023-02-24T16:28:44.268Z,9.80
2023-02-24T16:31:11.259Z,9.70
2023-02-24T16:33:53.693Z,9.60
2023-02-24T16:36:23.418Z,9.40
2023-02-24T16:38:51.698Z,9.40
2023-02-24T16:41:18.664Z,9.20
2023-02-24T16:43:45.528Z,9.10
2023-02-24T16:46:15.592Z,9.10
2023-02-24T16:48:46.644Z,9.00
2023-02-24T16:51:14.683Z,8.90
2023-02-24T16:53:41.689Z,8.90
2023-02-24T16:56:08.883Z,8.80
2023-02-24T16:58:35.794Z,8.80
2023-02-24T17:01:05.216Z,8.80
2023-02-24T17:03:41.194Z,8.80
2023-02-24T17:06:09.771Z,8.80
2023-02-24T17:08:36.947Z,8.70
2023-02-24T17:11:04.263Z,8.70
2023-02-24T17:13:31.133Z,8.70
2023-02-24T17:15:58.277Z,8.70
2023-02-24T17:18:25.860Z,8.70
2023-02-24T17:20:53.517Z,8.60
2023-02-24T17:23:22.494Z,8.60
2023-02-24T17:25:53.680Z,8.50
2023-02-24T17:28:20.786Z,8.50
2023-02-24T17:30:48.443Z,8.50
2023-02-24T17:33:15.761Z,8.50
2023-02-24T17:35:43.543Z,8.50
2023-02-24T17:38:12.945Z,8.50
2023-02-24T17:40:42.090Z,8.50
2023-02-24T17:43:09.237Z,8.50
2023-02-24T17:45:36.214Z,8.50
2023-02-24T17:48:03.142Z,8.40
2023-02-24T17:50:30.116Z,8.40
2023-02-24T17:52:57.608Z,8.30
2023-02-24T17:55:24.562Z,8.30
2023-02-24T17:57:52.855Z,8.30
2023-02-24T18:00:19.882Z,8.30
2023-02-24T18:02:46.985Z,8.20
2023-02-24T18:05:13.898Z,8.20
2023-02-24T18:07:40.820Z,8.10
2023-02-24T18:10:08.648Z,8.00
2023-02-24T18:12:35.709Z,8.00
2023-02-24T18:15:08.564Z,8.00
2023-02-24T18:17:38.740Z,8.00
2023-02-24T18:20:06.887Z,7.90
2023-02-24T18:22:33.935Z,7.90
2023-02-24T18:25:01.096Z,7.80
2023-02-24T18:27:28.223Z,7.70
2023-02-24T18:29:55.251Z,7.60
2023-02-24T18:32:24.016Z,7.40
2023-02-24T18:34:51.033Z,7.30
2023-02-24T18:37:17.847Z,7.20
2023-02-24T18:39:44.800Z,7.10
2023-02-24T18:42:11.815Z,7.10
2023-02-24T18:44:38.716Z,7.10
2023-02-24T18:47:09.353Z,7.20
2023-02-24T18:49:37.988Z,7.20
2023-02-24T18:52:05.526Z,7.30
2023-02-24T18:54:33.024Z,7.40
2023-02-24T18:56:59.943Z,7.40
2023-02-24T18:59:26.727Z,7.50
2023-02-24T19:01:56.605Z,7.60
2023-02-24T19:04:23.844Z,7.60
2023-02-24T19:06:52.081Z,7.60
2023-02-24T19:09:22.383Z,7.70
2023-02-24T19:11:49.995Z,7.70
2023-02-24T19:14:16.932Z,7.70
2023-02-24T19:16:44.194Z,7.80
2023-02-24T19:19:13.601Z,7.80
2023-02-24T19:21:40.542Z,7.70
2023-02-24T19:24:11.546Z,7.70
2023-02-24T19:26:38.810Z,7.70
2023-02-24T19:29:06.194Z,7.70
2023-02-24T19:31:34.725Z,7.70
2023-02-24T19:34:03.247Z,7.70
2023-02-24T19:36:32.373Z,7.70
2023-02-24T19:38:59.288Z,7.70
2023-02-24T19:41:27.770Z,7.70
2023-02-24T19:43:55.228Z,7.70
2023-02-24T19:46:23.070Z,7.60
2023-02-24T19:48:50.108Z,7.60
2023-02-24T19:51:19.879Z,7.60
2023-02-24T19:53:46.977Z,7.60
2023-02-24T19:56:14.065Z,7.60
2023-02-24T19:58:42.367Z,7.50
2023-02-24T20:01:11.216Z,7.50
2023-02-24T20:03:39.215Z,7.50
2023-02-24T20:06:08.016Z,7.60
2023-02-24T20:08:35.706Z,7.60
2023-02-24T20:11:05.030Z,7.60
2023-02-24T20:13:32.159Z,7.60
2023-02-24T20:16:08.541Z,7.70
2023-02-24T20:18:35.638Z,7.70
2023-02-24T20:21:02.571Z,7.80
2023-02-24T20:23:29.834Z,7.80
2023-02-24T20:26:00.764Z,7.90
2023-02-24T20:28:28.396Z,7.90
2023-02-24T20:30:57.437Z,7.90
2023-02-24T20:33:26.419Z,7.90
2023-02-24T20:35:53.499Z,7.90
2023-02-24T20:38:20.723Z,7.90
2023-02-24T20:40:56.459Z,7.90
2023-02-24T20:43:23.484Z,7.90
2023-02-24T20:45:50.395Z,7.90
2023-02-24T20:48:34.126Z,7.90
2023-02-24T20:51:03.857Z,7.90
2023-02-24T20:53:31.161Z,7.70
2023-02-24T20:56:01.422Z,7.90
2023-02-24T20:58:28.265Z,7.80
2023-02-24T21:00:55.242Z,7.80
2023-02-24T21:03:23.813Z,7.70
2023-02-24T21:06:01.569Z,7.70
2023-02-24T21:08:34.801Z,7.70
2023-02-24T21:11:01.866Z,7.70
2023-02-24T21:13:28.845Z,7.60
2023-02-24T21:15:56.869Z,7.60
2023-02-24T21:18:23.704Z,7.60
2023-02-24T21:20:56.579Z,7.60
2023-02-24T21:23:24.102Z,7.60
2023-02-24T21:25:51.915Z,7.70
2023-02-24T21:28:18.998Z,7.70
2023-02-24T21:30:45.939Z,7.70
2023-02-24T21:33:13.029Z,7.70
2023-02-24T21:35:40.502Z,7.60
2023-02-24T21:38:09.713Z,7.60
2023-02-24T21:40:37.413Z,7.60
2023-02-24T21:43:05.780Z,7.50
2023-02-24T21:45:33.852Z,7.40
2023-02-24T21:48:00.698Z,7.30
2023-02-24T21:50:27.604Z,7.20
2023-02-24T21:52:55.818Z,7.20
2023-02-24T21:55:24.035Z,7.10
2023-02-24T21:57:50.902Z,7.10
2023-02-24T22:00:19.194Z,7.00
2023-02-24T22:02:47.274Z,7.00
2023-02-24T22:05:16.362Z,7.00
2023-02-24T22:07:44.122Z,6.90
2023-02-24T22:10:12.882Z,6.90
2023-02-24T22:12:41.442Z,6.80
2023-02-24T22:15:09.331Z,6.80
2023-02-24T22:17:37.536Z,6.80
2023-02-24T22:20:05.793Z,6.80
2023-02-24T22:22:35.496Z,6.80
2023-02-24T22:25:02.313Z,6.80
2023-02-24T22:27:29.678Z,6.80
2023-02-24T22:29:57.970Z,6.80
2023-02-24T22:32:25.067Z,6.80
2023-02-24T22:34:51.984Z,6.80
2023-02-24T22:37:19.043Z,6.80
2023-02-24T22:39:45.889Z,6.70
2023-02-24T22:42:12.930Z,6.70
2023-02-24T22:44:39.828Z,6.70
2023-02-24T22:47:08.138Z,6.70
2023-02-24T22:49:35.100Z,6.80
2023-02-24T22:52:02.023Z,6.70
2023-02-24T22:54:28.913Z,6.70
2023-02-24T22:56:56.213Z,6.70
2023-02-24T22:59:23.188Z,6.70
2023-02-24T23:01:50.069Z,6.80
2023-02-24T23:04:18.518Z,6.80
2023-02-24T23:06:47.517Z,6.80
2023-02-24T23:09:19.563Z,6.80
2023-02-24T23:11:46.780Z,6.80
2023-02-24T23:14:14.588Z,6.80
2023-02-24T23:16:44.551Z,6.80
2023-02-24T23:19:18.391Z,6.80
2023-02-24T23:21:48.193Z,6.70
2023-02-24T23:24:15.892Z,6.70
2023-02-24T23:26:45.067Z,6.70
2023-02-24T23:29:14.274Z,6.70
2023-02-24T23:31:42.332Z,6.60
2023-02-24T23:34:09.846Z,6.60
2023-02-24T23:36:39.386Z,6.60
2023-02-24T23:39:09.066Z,6.60
2023-02-24T23:41:37.084Z,6.60
2023-02-24T23:44:05.258Z,6.60
2023-02-24T23:46:33.045Z,6.60
2023-02-24T23:49:00.278Z,6.60
2023-02-24T23:51:35.760Z,6.50
2023-02-24T23:54:11.970Z,6.60
2023-02-24T23:56:38.885Z,6.60
2023-02-24T23:59:05.757Z,6.60
